Time;durP1;ratioP1;P1;durP2;ratioP2;P2;SDS_P1;SDS_P2;PMS_P1;PMS_P2;Temp;Humidity;BMP_temperature;BMP_pressure;BME280_temperature;BME280_humidity;BME280_pressure;Samples;Min_cycle;Max_cycle;Signal;HPM_P1;HPM_P2
2021/08/15 00:00:49;;;;;;;11.13;9.63;;;;;;;14.19;88.60;101537.66;2108255;28;20468;-59
2021/08/15 00:01:49;;;;;;;11.95;8.77;;;;;;;14.21;88.61;101546.31;2108040;28;20293;-59
2021/08/15 00:02:49;;;;;;;10.93;9.20;;;;;;;14.24;88.77;101535.66;2108267;28;20026;-61
2021/08/15 00:03:50;;;;;;;11.23;9.10;;;;;;;14.26;88.62;101533.81;2108238;28;20022;-59
2021/08/15 00:04:52;;;;;;;11.30;8.80;;;;;;;14.29;88.82;101538.91;2108187;28;20465;-59
2021/08/15 00:05:52;;;;;;;10.13;8.55;;;;;;;14.31;88.52;101536.22;2108232;28;20039;-59
2021/08/15 00:06:53;;;;;;;11.17;8.20;;;;;;;14.31;88.51;101537.09;2108213;28;20042;-59
2021/08/15 00:07:54;;;;;;;10.48;8.45;;;;;;;14.31;88.31;101536.22;2108130;28;20031;-58
2021/08/15 00:08:54;;;;;;;12.32;9.27;;;;;;;14.30;88.32;101522.22;2108218;28;20370;-60
2021/08/15 00:09:54;;;;;;;11.43;8.57;;;;;;;14.29;88.56;101528.41;2108193;28;20465;-60
2021/08/15 00:10:56;;;;;;;10.65;7.75;;;;;;;14.27;88.56;101530.28;2108061;28;20533;-59
2021/08/15 00:11:56;;;;;;;9.73;7.80;;;;;;;14.26;88.48;101524.16;2108128;28;20016;-60
2021/08/15 00:12:57;;;;;;;8.80;7.50;;;;;;;14.26;88.46;101528.56;2108149;28;20356;-59
2021/08/15 00:13:57;;;;;;;8.67;6.70;;;;;;;14.26;88.40;101528.56;2107329;28;20115;-60
2021/08/15 00:14:57;;;;;;;10.80;6.50;;;;;;;14.25;88.51;101521.63;2107547;28;20021;-58
2021/08/15 00:15:58;;;;;;;10.93;7.43;;;;;;;14.23;88.39;101523.47;2107476;28;20599;-58
2021/08/15 00:16:58;;;;;;;12.75;7.32;;;;;;;14.22;88.63;101516.50;2108071;28;20030;-58
2021/08/15 00:17:59;;;;;;;11.80;8.63;;;;;;;14.21;88.64;101514.81;2108151;28;20034;-60
2021/08/15 00:19:05;;;;;;;7.88;7.13;;;;;;;14.20;88.74;101513.94;2107494;28;20473;-58
2021/08/15 00:20:06;;;;;;;9.05;7.43;;;;;;;14.18;88.64;101520.19;2107502;28;20019;-59
2021/08/15 00:21:06;;;;;;;9.50;7.80;;;;;;;14.17;88.67;101524.63;2108073;28;20119;-59
2021/08/15 00:22:06;;;;;;;8.07;7.20;;;;;;;14.16;88.80;101523.75;2108051;28;20019;-59
2021/08/15 00:23:07;;;;;;;9.60;7.17;;;;;;;14.16;88.92;101518.50;2108200;28;20024;-59
2021/08/15 00:24:07;;;;;;;8.80;5.80;;;;;;;14.15;88.85;101522.06;2107933;28;20473;-58
2021/08/15 00:25:11;;;;;;;8.37;5.97;;;;;;;14.14;88.96;101524.75;2108117;28;20020;-59
2021/08/15 00:26:11;;;;;;;7.50;6.80;;;;;;;14.15;88.91;101527.31;2108000;28;20027;-59
2021/08/15 00:27:12;;;;;;;9.03;7.37;;;;;;;14.15;88.90;101527.31;2108117;28;20051;-59
2021/08/15 00:28:12;;;;;;;9.10;6.93;;;;;;;14.16;88.99;101538.63;2107453;28;20115;-58
2021/08/15 00:29:12;;;;;;;7.27;6.37;;;;;;;14.15;88.72;101527.31;2107488;28;20020;-59
2021/08/15 00:30:16;;;;;;;7.03;6.33;;;;;;;14.17;88.85;101527.25;2108013;28;20472;-59
2021/08/15 00:31:17;;;;;;;8.43;6.75;;;;;;;14.15;88.61;101527.31;2107998;28;20380;-60
2021/08/15 00:32:17;;;;;;;7.20;6.50;;;;;;;14.13;88.46;101534.38;2107962;28;20016;-59
2021/08/15 00:33:17;;;;;;;8.30;6.20;;;;;;;14.12;88.67;101526.56;2107288;28;20274;-59
2021/08/15 00:34:18;;;;;;;6.90;6.13;;;;;;;14.11;88.72;101520.50;2107321;28;20150;-59
2021/08/15 00:35:18;;;;;;;9.40;6.23;;;;;;;14.10;88.65;101531.06;2107913;28;20020;-59
2021/08/15 00:36:18;;;;;;;7.53;5.90;;;;;;;14.08;88.46;101531.13;2107981;28;20827;-59
2021/08/15 00:37:18;;;;;;;7.20;6.50;;;;;;;14.06;88.84;101534.75;2107886;28;20372;-59
2021/08/15 00:38:18;;;;;;;7.90;6.40;;;;;;;14.04;89.01;101529.56;2107882;28;20381;-59
2021/08/15 00:39:19;;;;;;;9.33;5.97;;;;;;;14.03;88.70;101530.50;2107917;28;20087;-59
2021/08/15 00:40:19;;;;;;;8.33;6.33;;;;;;;14.01;88.91;101524.47;2107929;28;20274;-58
2021/08/15 00:41:20;;;;;;;7.80;6.87;;;;;;;13.99;88.96;101526.31;2107945;28;20020;-58
2021/08/15 00:42:21;;;;;;;6.55;5.93;;;;;;;13.97;88.82;101528.16;2107914;28;20300;-58
2021/08/15 00:43:21;;;;;;;6.20;5.60;;;;;;;13.96;89.02;101526.47;2107236;28;20020;-60
2021/08/15 00:44:21;;;;;;;7.47;6.40;;;;;;;13.95;89.16;101524.72;2107334;28;20492;-58
2021/08/15 00:45:22;;;;;;;9.17;6.87;;;;;;;13.94;89.33;101520.41;2107861;28;20019;-59
2021/08/15 00:46:22;;;;;;;11.13;6.40;;;;;;;13.93;89.21;101522.22;2107913;28;20319;-58
2021/08/15 00:47:22;;;;;;;7.70;6.95;;;;;;;13.92;89.06;101519.66;2107850;28;20016;-59
2021/08/15 00:48:23;;;;;;;7.43;6.57;;;;;;;13.92;89.37;101519.66;2106498;28;20027;-58
2021/08/15 00:49:23;;;;;;;8.97;6.60;;;;;;;13.92;89.25;101525.72;2107219;28;20028;-60
2021/08/15 00:50:23;;;;;;;6.90;6.17;;;;;;;13.90;89.28;101515.31;2107746;28;20070;-59
2021/08/15 00:51:24;;;;;;;8.00;6.60;;;;;;;13.89;89.37;101510.97;2107188;28;20070;-59
2021/08/15 00:52:24;;;;;;;8.68;6.72;;;;;;;13.88;89.60;101511.91;2098776;28;20028;-60
2021/08/15 00:53:24;;;;;;;9.83;5.97;;;;;;;13.88;89.42;101514.53;2107270;28;20047;-59
2021/08/15 00:54:24;;;;;;;7.40;6.57;;;;;;;13.88;89.34;101519.78;2107721;28;20379;-59
2021/08/15 00:55:25;;;;;;;8.15;5.88;;;;;;;13.86;89.02;101511.13;2107834;28;20020;-58
2021/08/15 00:56:26;;;;;;;7.17;6.20;;;;;;;13.87;89.40;101512.84;2107870;28;20103;-59
2021/08/15 00:57:28;;;;;;;;;;;;;;;13.86;89.55;101516.38;2108296;28;20059;-60
2021/08/15 00:58:42;;;;;;;6.95;6.25;;;;;;;13.85;89.70;101514.66;2107773;28;19914;-60
2021/08/15 00:59:43;;;;;;;7.80;6.78;;;;;;;13.84;89.10;101509.50;2107790;28;20024;-59
2021/08/15 01:00:43;;;;;;;6.20;5.60;;;;;;;13.86;89.25;101511.13;2107831;28;20024;-59
2021/08/15 01:01:43;;;;;;;6.87;6.07;;;;;;;13.85;89.50;101519.91;2107716;28;20028;-59
2021/08/15 01:02:47;;;;;;;11.07;6.57;;;;;;;13.84;89.36;101517.34;2106965;28;20024;-59
2021/08/15 01:03:48;;;;;;;6.80;6.10;;;;;;;13.83;89.39;101516.53;2107208;28;20024;-59
2021/08/15 01:04:49;;;;;;;8.13;7.33;;;;;;;13.82;89.43;101514.81;2107799;28;20508;-59
2021/08/15 01:05:49;;;;;;;8.10;6.13;;;;;;;13.83;89.42;101510.41;2107681;28;20384;-59
2021/08/15 01:06:50;;;;;;;8.53;6.90;;;;;;;13.84;89.07;101512.13;2107715;28;20019;-60
2021/08/15 01:07:50;;;;;;;6.55;5.55;;;;;;;13.86;89.28;101503.25;2107078;28;20461;-59
2021/08/15 01:08:50;;;;;;;6.23;5.73;;;;;;;13.91;89.23;101510.91;2107259;28;20103;-58
2021/08/15 01:09:51;;;;;;;7.27;6.60;;;;;;;13.92;89.13;101509.16;2107715;28;20285;-59
2021/08/15 01:10:51;;;;;;;6.37;5.77;;;;;;;13.92;89.10;101509.16;2107580;28;20384;-59
2021/08/15 01:11:51;;;;;;;7.17;6.33;;;;;;;13.92;89.09;101509.97;2107668;28;20409;-58
2021/08/15 01:12:52;;;;;;;6.50;5.72;;;;;;;13.92;88.69;101502.13;2107044;28;20147;-59
2021/08/15 01:13:52;;;;;;;6.97;6.30;;;;;;;13.92;88.68;101509.16;2106933;28;20452;-60
2021/08/15 01:14:56;;;;;;;7.43;6.73;;;;;;;13.90;88.94;101507.44;2107557;28;20143;-59
2021/08/15 01:15:56;;;;;;;8.15;6.25;;;;;;;13.90;88.82;101510.06;2107672;28;20024;-59
2021/08/15 01:16:58;;;;;;;6.23;5.30;;;;;;;13.89;88.72;101510.97;2107671;28;20027;-59
2021/08/15 01:17:58;;;;;;;;;;;;;;;13.89;88.96;101499.66;2108086;28;20031;-59
2021/08/15 01:18:58;;;;;;;6.70;5.73;;;;;;;13.86;88.56;101500.63;2106968;28;19915;-59
2021/08/15 01:19:59;;;;;;;6.70;6.00;;;;;;;13.86;88.58;101500.63;2107027;28;20469;-59
2021/08/15 01:21:04;;;;;;;8.57;5.47;;;;;;;13.86;88.98;101495.38;2107606;28;20050;-60
2021/08/15 01:22:05;;;;;;;8.43;6.68;;;;;;;13.87;88.78;101499.72;2107643;28;20031;-59
2021/08/15 01:23:05;;;;;;;7.00;5.90;;;;;;;13.89;88.86;101490.00;2107742;28;20484;-59
2021/08/15 01:24:06;;;;;;;8.07;6.17;;;;;;;13.89;88.77;101495.25;2107554;28;20052;-59
2021/08/15 01:25:07;;;;;;;8.07;7.28;;;;;;;13.88;88.85;101493.53;2107666;28;20369;-59
2021/08/15 01:26:09;;;;;;;7.22;6.63;;;;;;;13.87;88.70;101491.84;2107627;28;20107;-59
2021/08/15 01:27:10;;;;;;;7.28;6.68;;;;;;;13.86;88.60;101484.88;2107491;28;20028;-59
2021/08/15 01:28:15;;;;;;;8.60;7.10;;;;;;;13.87;88.54;101491.84;2107489;28;20093;-59
2021/08/15 01:29:19;;;;;;;6.95;6.35;;;;;;;13.87;88.83;101491.00;2107517;28;20427;-59
2021/08/15 01:30:19;;;;;;;6.28;5.78;;;;;;;13.86;88.68;101484.88;2107555;28;20016;-60
2021/08/15 01:31:21;;;;;;;7.53;6.83;;;;;;;13.84;88.56;101489.38;2107509;28;20052;-59
2021/08/15 01:32:21;;;;;;;7.30;5.97;;;;;;;13.84;89.07;101492.00;2107488;28;20024;-59
2021/08/15 01:33:30;;;;;;;7.43;6.47;;;;;;;13.83;88.97;101485.06;2107548;28;20026;-59
2021/08/15 01:34:30;;;;;;;6.50;5.80;;;;;;;13.85;88.98;101479.69;2107390;28;20634;-59
2021/08/15 01:35:30;;;;;;;6.97;6.23;;;;;;;13.85;88.95;101480.56;2107394;28;20015;-59
2021/08/15 01:36:30;;;;;;;10.43;8.10;;;;;;;13.87;89.06;101478.72;2107590;28;20465;-60
2021/08/15 01:37:31;;;;;;;7.83;7.13;;;;;;;13.88;89.17;101477.81;2106754;28;20119;-60
2021/08/15 01:38:35;;;;;;;9.30;7.97;;;;;;;13.90;88.96;101478.56;2106797;28;20064;-60
2021/08/15 01:39:35;;;;;;;10.88;9.88;;;;;;;13.89;88.78;101479.50;2107445;28;20027;-59
2021/08/15 01:40:35;;;;;;;9.40;8.50;;;;;;;13.93;88.83;101479.38;2107471;28;20454;-58
2021/08/15 01:41:35;;;;;;;9.23;8.20;;;;;;;13.96;88.74;101484.47;2107449;28;20051;-59
2021/08/15 01:42:35;;;;;;;10.77;9.67;;;;;;;13.99;88.89;101473.84;2107362;28;20023;-59
2021/08/15 01:44:01;;;;;;;12.37;11.07;;;;;;;14.07;88.61;101474.31;2107517;28;20020;-59
2021/08/15 01:45:07;;;;;;;13.60;9.88;;;;;;;14.16;88.49;101473.88;2107493;28;20032;-59
2021/08/15 01:46:07;;;;;;;11.70;10.50;;;;;;;14.20;88.11;101479.00;2107345;28;20025;-59
2021/08/15 01:47:07;;;;;;;12.70;10.50;;;;;;;14.24;87.90;101473.50;2107397;28;20076;-59
2021/08/15 01:48:08;;;;;;;12.65;11.32;;;;;;;14.28;87.69;101467.22;2107397;28;20081;-58
2021/08/15 01:49:08;;;;;;;13.90;11.97;;;;;;;14.35;87.49;101475.63;2107396;28;20031;-59
2021/08/15 01:50:09;;;;;;;14.10;11.43;;;;;;;14.41;87.22;101474.47;2107396;28;20051;-58
2021/08/15 01:51:09;;;;;;;13.43;12.02;;;;;;;14.47;87.06;101474.16;2107361;28;20042;-59
2021/08/15 01:52:10;;;;;;;13.52;12.00;;;;;;;14.54;86.56;101470.31;2107333;28;20035;-59
2021/08/15 01:53:15;;;;;;;12.75;10.77;;;;;;;14.58;86.27;101472.78;2107499;28;20044;-58
2021/08/15 01:54:16;;;;;;;12.52;11.38;;;;;;;14.58;86.11;101473.66;2107252;28;20113;-60
2021/08/15 01:55:16;;;;;;;11.32;10.32;;;;;;;14.60;86.13;101477.03;2107340;28;20534;-59
2021/08/15 01:56:17;;;;;;;14.23;12.23;;;;;;;14.59;86.04;101464.84;2107328;28;20016;-60
2021/08/15 01:57:17;;;;;;;14.25;11.85;;;;;;;14.60;86.02;101468.31;2106590;28;20087;-59
2021/08/15 01:58:19;;;;;;;14.43;12.20;;;;;;;14.57;86.13;101463.22;2106761;28;20111;-60
2021/08/15 01:59:19;;;;;;;;;;;;;;;14.59;85.82;101456.97;2107018;28;20473;-59
2021/08/15 02:00:19;;;;;;;13.07;11.63;;;;;;;14.63;85.54;101458.50;2105859;28;19914;-59
2021/08/15 02:01:21;;;;;;;11.97;10.87;;;;;;;14.62;85.94;101456.81;2107174;28;20012;-58
2021/08/15 02:02:21;;;;;;;14.45;12.93;;;;;;;14.59;86.00;101459.59;2107274;28;20008;-58
2021/08/15 02:03:22;;;;;;;13.27;11.97;;;;;;;14.55;85.98;101456.25;2107277;28;20481;-60
2021/08/15 02:04:22;;;;;;;13.77;12.30;;;;;;;14.52;86.19;101463.44;2107286;28;20095;-59
2021/08/15 02:05:23;;;;;;;14.90;12.43;;;;;;;14.50;86.40;101454.78;2106632;28;20016;-63
2021/08/15 02:06:23;;;;;;;14.93;12.60;;;;;;;14.52;86.27;101460.81;2106731;28;20047;-59
2021/08/15 02:07:24;;;;;;;19.60;14.23;;;;;;;14.49;86.45;101455.72;2107244;28;20047;-59
2021/08/15 02:08:25;;;;;;;15.85;12.70;;;;;;;14.49;86.42;101455.72;2107240;28;20093;-59
2021/08/15 02:09:25;;;;;;;15.10;13.37;;;;;;;14.51;86.27;101453.88;2107185;28;20101;-59
2021/08/15 02:10:28;;;;;;;14.95;12.98;;;;;;;14.50;86.26;101452.16;2107287;28;20024;-59
2021/08/15 02:11:28;;;;;;;13.30;11.82;;;;;;;14.48;86.39;101443.50;2107041;28;20044;-60
2021/08/15 02:12:28;;;;;;;14.77;12.73;;;;;;;14.50;86.15;101453.00;2107260;28;20062;-60
2021/08/15 02:13:28;;;;;;;14.50;12.53;;;;;;;14.49;86.25;101442.59;2107190;28;20039;-60
2021/08/15 02:14:29;;;;;;;12.67;11.13;;;;;;;14.50;86.31;101449.53;2106494;28;20028;-60
2021/08/15 02:15:31;;;;;;;14.20;12.77;;;;;;;14.49;86.43;101445.22;2106527;28;20024;-60
2021/08/15 02:16:31;;;;;;;15.50;12.73;;;;;;;14.49;86.32;101445.22;2107250;28;20020;-59
2021/08/15 02:17:32;;;;;;;15.33;12.77;;;;;;;14.48;86.41;101439.13;2107216;28;20032;-60
2021/08/15 02:18:32;;;;;;;12.57;11.40;;;;;;;14.48;86.34;101433.88;2107143;28;20024;-60
2021/08/15 02:19:33;;;;;;;15.43;12.98;;;;;;;14.47;86.37;101432.16;2107192;28;20492;-58
2021/08/15 02:20:35;;;;;;;12.90;11.52;;;;;;;14.49;86.63;101434.69;2107169;28;20552;-58
2021/08/15 02:21:35;;;;;;;13.48;11.32;;;;;;;14.50;86.31;101431.13;2106449;28;20023;-60
2021/08/15 02:22:35;;;;;;;14.30;12.73;;;;;;;14.50;86.31;101428.50;2106509;28;20394;-59
2021/08/15 02:23:35;;;;;;;14.87;11.83;;;;;;;14.52;86.35;101431.94;2107111;28;20105;-59
2021/08/15 02:24:36;;;;;;;13.20;11.97;;;;;;;14.53;86.29;101428.38;2107134;28;20016;-59
2021/08/15 02:25:36;;;;;;;15.20;12.80;;;;;;;14.52;86.22;101429.31;2107078;28;20047;-60
2021/08/15 02:26:36;;;;;;;15.48;12.32;;;;;;;14.51;86.13;101425.00;2107099;28;20069;-60
2021/08/15 02:27:38;;;;;;;13.70;12.13;;;;;;;14.50;86.21;101425.88;2107095;28;20427;-59
2021/08/15 02:28:39;;;;;;;13.18;12.00;;;;;;;14.49;86.15;101421.56;2107051;28;20027;-59
2021/08/15 02:29:39;;;;;;;15.40;13.07;;;;;;;14.49;86.40;101424.19;2107138;28;20024;-58
2021/08/15 02:30:39;;;;;;;15.45;13.18;;;;;;;14.49;86.20;101424.19;2107089;28;20059;-59
2021/08/15 02:31:40;;;;;;;15.60;11.83;;;;;;;14.50;86.47;101425.88;2107017;28;20020;-59
2021/08/15 02:32:41;;;;;;;14.50;13.13;;;;;;;14.52;86.28;101424.06;2107010;28;20046;-59
2021/08/15 02:33:41;;;;;;;13.27;12.15;;;;;;;14.55;86.49;101426.53;2107021;28;20020;-60
2021/08/15 02:34:42;;;;;;;15.23;13.73;;;;;;;14.55;86.50;101426.53;2106942;28;20477;-60
2021/08/15 02:35:42;;;;;;;13.77;12.37;;;;;;;14.55;86.40;101423.91;2107042;28;20496;-60
2021/08/15 02:36:43;;;;;;;16.38;13.82;;;;;;;14.53;86.25;101425.75;2107046;28;20032;-59
2021/08/15 02:37:46;;;;;;;13.57;12.10;;;;;;;14.52;86.25;101424.91;2107099;28;20534;-59
2021/08/15 02:38:47;;;;;;;13.40;12.10;;;;;;;14.52;86.31;101421.44;2106998;28;20028;-59
2021/08/15 02:39:47;;;;;;;15.40;13.57;;;;;;;14.52;86.43;101422.28;2106927;28;20532;-59
2021/08/15 02:40:47;;;;;;;15.00;13.40;;;;;;;14.49;86.11;101409.31;2106983;28;20103;-60
2021/08/15 02:41:47;;;;;;;15.17;13.43;;;;;;;14.52;86.42;101418.81;2107045;28;20024;-60
2021/08/15 02:42:50;;;;;;;14.07;12.60;;;;;;;14.54;86.09;101422.19;2107049;28;20032;-59
2021/08/15 02:43:50;;;;;;;14.55;13.18;;;;;;;14.55;86.26;101413.41;2107048;28;20016;-60
2021/08/15 02:44:51;;;;;;;15.93;13.97;;;;;;;14.57;86.19;101406.28;2107017;28;20019;-59
2021/08/15 02:45:51;;;;;;;16.60;13.87;;;;;;;14.57;85.83;101413.31;2106906;28;20028;-59
2021/08/15 02:46:51;;;;;;;15.53;13.13;;;;;;;14.55;86.13;101413.41;2106947;28;20385;-59
2021/08/15 02:47:52;;;;;;;14.27;12.67;;;;;;;14.57;86.31;101406.28;2106917;28;20473;-61
2021/08/15 02:48:52;;;;;;;14.18;12.82;;;;;;;14.58;86.20;101413.25;2106992;28;20027;-59
2021/08/15 02:49:53;;;;;;;14.63;13.00;;;;;;;14.59;86.16;101414.09;2106988;28;20035;-59
2021/08/15 02:50:53;;;;;;;16.93;11.93;;;;;;;14.57;86.13;101411.53;2106933;28;20066;-59
2021/08/15 02:51:53;;;;;;;14.43;13.03;;;;;;;14.58;86.11;101409.75;2106879;28;20073;-60
2021/08/15 02:52:53;;;;;;;15.10;13.40;;;;;;;14.56;86.26;101409.84;2107050;28;20035;-59
2021/08/15 02:53:54;;;;;;;13.60;11.13;;;;;;;14.56;86.14;101401.97;2106879;28;20031;-59
2021/08/15 02:54:54;;;;;;;13.57;12.17;;;;;;;14.56;86.10;101399.34;2106235;28;20024;-59
2021/08/15 02:55:54;;;;;;;15.60;12.40;;;;;;;14.60;86.10;101400.88;2097846;28;20028;-60
2021/08/15 02:56:54;;;;;;;13.27;11.43;;;;;;;14.63;86.08;101400.72;2106284;28;20035;-59
2021/08/15 02:57:55;;;;;;;13.20;11.70;;;;;;;14.62;85.95;101406.91;2106890;28;20051;-59
2021/08/15 02:58:55;;;;;;;13.97;12.37;;;;;;;14.64;85.66;101404.19;2106951;28;20028;-59
2021/08/15 02:59:55;;;;;;;13.73;11.70;;;;;;;14.63;85.92;101398.09;2106932;28;20020;-59
2021/08/15 03:00:55;;;;;;;14.10;12.37;;;;;;;14.63;85.95;101395.47;2106811;28;20105;-59
2021/08/15 03:01:56;;;;;;;15.93;12.07;;;;;;;14.62;86.01;101396.41;2106862;28;20020;-59
2021/08/15 03:02:56;;;;;;;12.67;10.60;;;;;;;14.63;85.86;101397.25;2106883;28;20024;-62
2021/08/15 03:03:56;;;;;;;14.60;12.47;;;;;;;14.62;86.00;101383.28;2106796;28;20075;-60
2021/08/15 03:04:56;;;;;;;14.50;11.73;;;;;;;14.62;85.90;101393.78;2106883;28;20112;-59
2021/08/15 03:05:57;;;;;;;12.80;11.57;;;;;;;14.61;86.19;101392.06;2106872;28;20027;-59
2021/08/15 03:06:57;;;;;;;12.33;11.13;;;;;;;14.61;85.98;101393.84;2106846;28;20532;-60
2021/08/15 03:07:57;;;;;;;13.10;11.77;;;;;;;14.61;86.19;101392.06;2106185;28;20504;-59
2021/08/15 03:08:57;;;;;;;14.90;13.10;;;;;;;14.60;86.34;101390.38;2106245;28;20035;-60
2021/08/15 03:09:57;;;;;;;15.17;13.30;;;;;;;14.60;86.12;101384.25;2106807;28;20061;-59
2021/08/15 03:10:58;;;;;;;17.17;12.73;;;;;;;14.57;86.34;101382.63;2106697;28;20055;-60
2021/08/15 03:11:58;;;;;;;14.80;12.40;;;;;;;14.57;86.35;101385.25;2106624;28;20020;-60
2021/08/15 03:12:58;;;;;;;14.10;12.70;;;;;;;14.56;86.49;101386.19;2106811;28;20031;-60
2021/08/15 03:13:58;;;;;;;13.27;11.90;;;;;;;14.55;86.44;101384.50;2106113;28;20548;-59
2021/08/15 03:14:59;;;;;;;16.67;12.93;;;;;;;14.53;86.57;101383.72;2106236;28;20028;-60
2021/08/15 03:15:59;;;;;;;14.35;12.52;;;;;;;14.54;86.56;101385.41;2106655;28;20097;-58
2021/08/15 03:16:59;;;;;;;13.67;12.37;;;;;;;14.52;86.51;101380.28;2106768;28;20144;-60
2021/08/15 03:18:00;;;;;;;13.87;12.17;;;;;;;14.52;86.61;101377.63;2106758;28;20039;-60
2021/08/15 03:19:00;;;;;;;13.03;11.83;;;;;;;14.52;86.59;101376.78;2106799;28;20028;-60
2021/08/15 03:20:00;;;;;;;13.37;11.97;;;;;;;14.53;86.56;101379.34;2106842;28;20048;-60
2021/08/15 03:21:00;;;;;;;14.60;11.67;;;;;;;14.55;86.58;101381.88;2106851;28;20480;-59
2021/08/15 03:22:01;;;;;;;15.07;12.33;;;;;;;14.57;86.52;101384.44;2106870;28;20058;-60
2021/08/15 03:23:01;;;;;;;14.60;12.98;;;;;;;14.58;86.59;101387.00;2106753;28;20032;-60
2021/08/15 03:24:02;;;;;;;12.77;11.47;;;;;;;14.59;86.49;101387.81;2106914;28;20082;-60
2021/08/15 03:25:03;;;;;;;;;;;;;;;14.60;86.50;101379.88;2107161;28;20118;-61
2021/08/15 03:26:05;;;;;;;13.27;11.32;;;;;;;14.61;86.27;101386.81;2106782;28;19911;-59
2021/08/15 03:27:05;;;;;;;13.40;12.00;;;;;;;14.61;86.42;101376.31;2106775;28;20028;-59
2021/08/15 03:28:07;;;;;;;16.30;13.07;;;;;;;14.60;86.53;101374.59;2106739;28;20028;-59
2021/08/15 03:29:07;;;;;;;16.73;12.43;;;;;;;14.61;86.57;101375.47;2106788;28;20024;-60
2021/08/15 03:30:07;;;;;;;14.27;11.27;;;;;;;14.63;86.63;101378.84;2106760;28;20022;-60
2021/08/15 03:31:08;;;;;;;14.68;12.02;;;;;;;14.69;85.81;101373.28;2106622;28;20024;-60
2021/08/15 03:32:08;;;;;;;15.17;12.03;;;;;;;14.74;85.93;101370.41;2106790;28;20028;-59
2021/08/15 03:33:08;;;;;;;13.73;11.50;;;;;;;14.81;85.89;101374.47;2106780;28;20150;-59
2021/08/15 03:34:08;;;;;;;15.60;12.60;;;;;;;14.85;85.85;101373.38;2106687;28;20016;-59
2021/08/15 03:35:09;;;;;;;17.03;13.67;;;;;;;14.85;85.73;101376.00;2106765;28;20082;-59
2021/08/15 03:36:09;;;;;;;13.82;12.40;;;;;;;14.84;85.86;101376.94;2106746;28;20048;-59
2021/08/15 03:37:09;;;;;;;15.37;12.50;;;;;;;14.81;86.01;101377.09;2106731;28;20036;-59
2021/08/15 03:38:10;;;;;;;14.33;12.73;;;;;;;14.79;85.86;101384.22;2106835;28;20278;-59
2021/08/15 03:39:10;;;;;;;13.97;12.13;;;;;;;14.77;86.07;101372.91;2106741;28;20032;-58
2021/08/15 03:40:11;;;;;;;14.87;13.17;;;;;;;14.74;86.22;101380.91;2106605;28;20036;-59
2021/08/15 03:41:11;;;;;;;16.75;12.50;;;;;;;14.72;86.25;101375.78;2106656;28;20106;-60
2021/08/15 03:42:11;;;;;;;14.90;12.53;;;;;;;14.73;85.82;101379.22;2106699;28;20108;-60
2021/08/15 03:43:12;;;;;;;13.87;12.47;;;;;;;14.72;86.17;101375.78;2106755;28;20441;-59
2021/08/15 03:44:12;;;;;;;12.47;11.27;;;;;;;14.74;86.11;101375.66;2106724;28;20376;-59
2021/08/15 03:45:12;;;;;;;19.97;12.57;;;;;;;14.74;86.33;101380.91;2106729;28;20091;-59
2021/08/15 03:46:13;;;;;;;14.50;12.23;;;;;;;14.73;86.44;101387.13;2106687;28;20019;-59
2021/08/15 03:47:13;;;;;;;17.07;13.80;;;;;;;14.71;86.59;101381.09;2106081;28;20093;-59
2021/08/15 03:48:13;;;;;;;18.77;12.47;;;;;;;14.70;86.69;101374.13;2097692;28;20048;-59
2021/08/15 03:49:13;;;;;;;14.30;12.33;;;;;;;14.70;86.76;101379.38;2106033;28;20023;-59
2021/08/15 03:50:14;;;;;;;13.37;11.50;;;;;;;14.66;86.53;101376.94;2106703;28;20512;-60
2021/08/15 03:51:14;;;;;;;15.67;13.50;;;;;;;14.66;86.72;101378.69;2106667;28;20495;-59
2021/08/15 03:52:15;;;;;;;16.13;12.38;;;;;;;14.64;86.66;101381.41;2106484;28;20039;-60
2021/08/15 03:53:15;;;;;;;13.77;11.57;;;;;;;14.65;86.64;101382.25;2106653;28;20083;-58
2021/08/15 03:54:19;;;;;;;16.23;13.33;;;;;;;14.65;86.61;101382.25;2106656;28;20032;-59
2021/08/15 03:55:19;;;;;;;15.55;13.52;;;;;;;14.63;86.85;101384.97;2106646;28;20020;-59
2021/08/15 03:56:20;;;;;;;15.53;13.50;;;;;;;14.64;87.00;101384.03;2106653;28;20020;-59
2021/08/15 03:57:20;;;;;;;16.67;12.83;;;;;;;14.64;87.07;101381.41;2106751;28;20546;-59
2021/08/15 03:58:20;;;;;;;17.33;12.97;;;;;;;14.63;86.96;101381.47;2105877;28;20518;-59
2021/08/15 03:59:22;;;;;;;16.40;13.17;;;;;;;14.61;87.09;101385.97;2106116;28;20101;-58
2021/08/15 04:00:22;;;;;;;15.13;13.15;;;;;;;14.60;87.08;101379.88;2106615;28;20019;-59
2021/08/15 04:01:22;;;;;;;17.40;14.50;;;;;;;14.58;87.09;101386.13;2105897;28;20016;-60
2021/08/15 04:02:23;;;;;;;14.23;12.70;;;;;;;14.55;87.52;101382.72;2106077;28;20031;-58
2021/08/15 04:03:23;;;;;;;20.03;13.77;;;;;;;14.54;87.01;101385.41;2106602;28;20303;-60
2021/08/15 04:04:23;;;;;;;16.43;13.80;;;;;;;14.53;87.13;101388.97;2106582;28;20020;-59
2021/08/15 04:05:23;;;;;;;18.20;12.80;;;;;;;14.51;87.28;101380.34;2106605;28;20020;-59
2021/08/15 04:06:24;;;;;;;17.33;13.43;;;;;;;14.50;87.46;101389.13;2106588;28;20077;-59
2021/08/15 04:07:24;;;;;;;15.80;12.50;;;;;;;14.51;87.26;101390.84;2106517;28;20020;-59
2021/08/15 04:08:26;;;;;;;18.00;14.83;;;;;;;14.53;87.46;101389.84;2106614;28;20024;-59
2021/08/15 04:09:26;;;;;;;17.63;11.30;;;;;;;14.53;87.47;101384.59;2106538;28;20020;-61
2021/08/15 04:10:26;;;;;;;16.20;13.90;;;;;;;14.53;87.47;101383.72;2106549;28;20012;-60
2021/08/15 04:11:28;;;;;;;17.53;15.57;;;;;;;14.51;87.79;101369.84;2106425;28;20461;-60
2021/08/15 04:12:29;;;;;;;20.77;13.98;;;;;;;14.52;87.85;101380.28;2106619;28;20023;-60
2021/08/15 04:13:29;;;;;;;16.85;14.63;;;;;;;14.53;87.44;101383.72;2106753;28;20020;-59
2021/08/15 04:14:29;;;;;;;17.70;14.33;;;;;;;14.52;87.71;101377.63;2106658;28;20523;-60
2021/08/15 04:15:30;;;;;;;20.10;14.77;;;;;;;14.55;87.61;101381.88;2106589;28;20024;-60
2021/08/15 04:16:30;;;;;;;20.92;14.68;;;;;;;14.56;87.45;101378.31;2106520;28;20034;-59
2021/08/15 04:17:30;;;;;;;19.27;16.00;;;;;;;14.57;87.53;101377.38;2105839;28;20017;-60
2021/08/15 04:18:30;;;;;;;15.70;14.00;;;;;;;14.58;87.58;101381.75;2106010;28;20102;-59
2021/08/15 04:19:31;;;;;;;22.97;14.80;;;;;;;14.58;87.59;101381.75;2106549;28;20024;-59
2021/08/15 04:20:31;;;;;;;21.40;16.13;;;;;;;14.59;87.71;101385.19;2106636;28;20047;-59
2021/08/15 04:21:31;;;;;;;19.33;15.27;;;;;;;14.59;87.51;101387.81;2106532;28;20032;-61
2021/08/15 04:22:32;;;;;;;19.33;14.67;;;;;;;14.59;87.59;101382.56;2106592;28;20039;-60
2021/08/15 04:23:32;;;;;;;19.50;14.73;;;;;;;14.58;87.67;101376.47;2107179;28;20492;-60
2021/08/15 04:24:33;;;;;;;15.48;13.98;;;;;;;14.58;87.63;101384.38;2108111;28;20028;-60
2021/08/15 04:25:33;;;;;;;18.63;14.97;;;;;;;14.57;87.64;101382.63;2107999;28;20106;-60
2021/08/15 04:26:33;;;;;;;18.60;15.27;;;;;;;14.57;87.70;101377.38;2108040;28;20024;-59
2021/08/15 04:27:34;;;;;;;15.10;13.03;;;;;;;14.58;87.79;101379.09;2108092;28;20496;-62
2021/08/15 04:28:34;;;;;;;17.17;14.43;;;;;;;14.60;87.52;101382.50;2108094;28;20024;-59
2021/08/15 04:29:36;;;;;;;16.17;14.07;;;;;;;14.65;87.33;101375.22;2108049;28;20031;-59
2021/08/15 04:30:36;;;;;;;18.63;15.73;;;;;;;14.72;87.38;101377.53;2108058;28;20051;-59
2021/08/15 04:31:37;;;;;;;17.93;13.53;;;;;;;14.72;87.15;101373.16;2107973;28;20035;-59
2021/08/15 04:32:37;;;;;;;15.73;12.90;;;;;;;14.78;86.98;101372.00;2108025;28;20023;-60
2021/08/15 04:33:38;;;;;;;15.40;13.73;;;;;;;14.81;86.77;101369.19;2108056;28;20047;-58
2021/08/15 04:34:38;;;;;;;17.77;14.30;;;;;;;14.82;86.48;101373.56;2107924;28;20431;-59
2021/08/15 04:35:38;;;;;;;20.00;14.13;;;;;;;14.83;87.06;101371.75;2107910;28;20028;-59
2021/08/15 04:36:38;;;;;;;17.23;12.60;;;;;;;14.83;86.85;101367.34;2108000;28;20020;-58
2021/08/15 04:37:39;;;;;;;17.13;13.50;;;;;;;14.83;86.53;101370.00;2107895;28;20058;-59
2021/08/15 04:38:39;;;;;;;18.10;14.67;;;;;;;14.84;86.80;101371.69;2107983;28;20039;-59